Latest Coastal Weather Observations for Cerberus

IDV60701

Issued at 7:52 pm EST Monday 4 May 2026 (issued every 10 minutes, with the page automatically refreshed every 10 minutes)

About coastal observations | Map of coastal stations | Coastal observations for VIC | Marine services | Other Formats
Station Details ID: 086361 Name: CERBERUS Lat: -38.36 Lon: 145.18 Height: 12.69 m
Data from the previous 72 hours. | See also: Recent months at Cerberus
Date/Time
EST
Wind Sea
Height
m
Swell Vis
km
Cloud Weather Temp
°C
Press
MSL
hPa
Rain since
9am
mm
Dir  Spd
kts
Gust
kts
Height
m
Period
s
Dir
04/07:30pm N 10 20 - - - - - - - 15.7 1009.6 0.2
04/07:00pm N 11 21 - - - - - - - 15.8 1009.3 0.2
04/06:30pm N 9 15 - - - - - - - 16.1 1009.2 0.2
04/06:00pm N 10 18 - - - - - - - 16.2 1008.7 0.2
04/05:30pm N 11 26 - - - - - - - 16.6 1008.8 0.2
04/05:00pm N 10 22 - - - - - - - 17.0 1008.5 0.2
04/04:30pm N 10 19 - - - - - - - 17.6 1008.2 0.2
04/04:00pm N 13 23 - - - - - - - 18.4 1008.1 0.2
04/03:30pm NNW 12 26 - - - - - - - 18.3 1008.1 0.2
04/03:00pm N 12 29 - - - - - - - 18.6 1008.1 0.2
04/02:30pm N 13 23 - - - - - - - 18.3 1008.2 0.2
04/02:00pm NNW 9 18 - - - - - - - 19.3 1008.1 0.2
04/01:30pm N 12 21 - - - - - - - 18.0 1008.3 0.2
04/01:00pm N 14 24 - - - - - - - 17.9 1008.4 0.2
04/12:30pm N 11 24 - - - - - - - 18.0 1009.0 0.2
04/12:00pm N 13 23 - - - - - - - 17.5 1009.4 0.2
04/11:42am NNW 15 26 - - - - - - - 17.3 1009.7 0.2
04/11:30am NNW 14 23 - - - - - - - 17.4 1009.8 0.2
04/11:00am N 10 20 - - - - - - - 17.8 1009.9 0.2
04/10:30am N 11 22 - - - - - - - 17.5 1009.9 0.0
04/10:00am N 9 22 - - - - - - - 16.8 1010.3 0.0
04/09:30am N 7 13 - - - - - - - 16.4 1010.5 0.0
04/09:00am N 7 13 - - - - - - - 15.8 1010.6 9.6
04/08:30am NNE 5 11 - - - - - - - 15.3 1010.7 9.6
04/08:00am N 7 14 - - - - - - - 13.9 1010.9 9.6
04/07:30am N 5 9 - - - - - - - 13.2 1010.6 9.6
04/07:00am N 5 8 - - - - - - - 12.6 1010.5 9.6
04/06:30am NNE 3 7 - - - - - - - 12.0 1010.4 9.6
04/06:00am N 3 6 - - - - - - - 12.2 1010.6 9.6
04/05:30am N 4 6 - - - - - - - 12.3 1010.7 9.6
04/05:00am N 4 6 - - - - - - - 12.7 1011.0 9.6
04/04:30am N 4 7 - - - - - - - 12.6 1011.1 9.6
04/04:00am N 4 9 - - - - - - - 12.4 1011.3 9.6
04/03:30am N 3 5 - - - - - - - 12.3 1011.4 9.6
04/03:00am N 5 9 - - - - - - - 12.8 1011.5 9.6
04/02:30am N 4 7 - - - - - - - 13.0 1011.6 9.6
04/02:00am N 4 8 - - - - - - - 12.9 1011.8 9.6
04/01:30am N 3 5 - - - - - - - 13.0 1011.9 9.6
04/01:00am N 3 5 - - - - - - - 13.1 1011.8 9.6
04/12:30am NNE 3 6 - - - - - - - 13.6 1012.0 9.6
04/12:00am N 3 6 - - - - - - - 14.0 1011.6 9.6
 
Date/Time
EST
Wind Sea
Height
m
Swell Vis
km
Cloud Weather Temp
°C
Press
MSL
hPa
Rain since
9am
mm
Dir  Spd
kts
Gust
kts
Height
m
Period
s
Dir
03/11:30pm NNE 3 5 - - - - - - - 14.0 1011.9 9.6
03/11:00pm N 2 5 - - - - - - - 14.3 1012.1 9.6
03/10:30pm NNW 3 6 - - - - - - - 14.5 1011.7 9.6
03/10:00pm N 3 7 - - - - - - - 14.1 1012.6 9.6
03/09:30pm N 3 5 - - - - - - - 13.9 1012.0 9.6
03/09:00pm NE 2 4 - - - - - - - 13.5 1012.4 9.6
03/08:30pm NE 2 3 - - - - - - - 13.3 1012.1 9.6
03/08:00pm N 2 3 - - - - - - - 13.3 1012.2 9.6
03/07:30pm NNE 4 5 - - - - - - - 13.3 1012.2 9.6
03/07:00pm N 2 3 - - - - - - - 13.6 1011.6 9.6
03/06:30pm NNW 4 8 - - - - - - - 13.9 1010.7 9.6
03/06:00pm NNW 3 4 - - - - - - - 14.2 1010.6 9.6
03/05:30pm N 3 4 - - - - - - - 16.0 1010.6 9.6
03/05:00pm N 1 3 - - - - - - - 16.9 1010.2 9.6
03/04:30pm N 2 3 - - - - - - - 16.6 1009.7 9.6
03/04:00pm N 3 5 - - - - - - - 16.5 1009.9 9.6
03/03:30pm NW 5 8 - - - - - - - 16.5 1010.0 9.6
03/03:00pm NW 6 10 - - - - - - Recent precip. 16.2 1010.1 9.6
03/02:30pm WNW 7 10 - - - - - - - 16.5 1010.0 8.8
03/02:00pm NW 8 13 - - - - - - - 17.9 1009.8 7.0
03/01:30pm NNW 8 16 - - - - - - - 19.6 1009.5 6.6
03/01:00pm N 9 16 - - - - - - - 20.9 1009.7 6.6
03/12:30pm N 6 12 - - - - - - - 18.7 1009.8 6.6
03/12:00pm NNE 7 13 - - - - - - Recent precip. 17.4 1009.9 6.6
03/11:30am NNE 7 14 - - - - - - - 17.6 1010.8 6.0
03/11:00am NNE 8 14 - - - - - - - 17.7 1010.4 5.0
03/10:30am N 8 20 - - - - - - - 18.2 1011.2 1.4
03/10:00am N 7 13 - - - - - - - 19.4 1011.2 0.2
03/09:30am NNE 6 12 - - - - - - - 19.7 1010.9 0.0
03/09:00am NNE 7 13 - - - - - - - 19.3 1010.6 1.8
03/08:30am NNE 7 12 - - - - - - - 18.9 1010.7 1.8
03/08:00am NNE 6 11 - - - - - - - 18.0 1011.3 1.8
03/07:30am NNE 4 7 - - - - - - - 17.5 1011.5 1.8
03/07:00am NNE 6 12 - - - - - - - 17.4 1012.1 1.8
03/06:30am N 3 5 - - - - - - - 16.5 1012.5 1.4
03/06:00am NNE 2 5 - - - - - - Rain 15.4 1012.4 1.0
03/05:30am NE 1 2 - - - - - - - 15.7 1012.2 0.8
03/05:00am NE 2 2 - - - - - - - 15.8 1012.1 0.0
03/04:30am NNE 1 2 - - - - - - - 15.9 1011.8 0.0
03/04:00am NNE 1 3 - - - - - - - 15.6 1011.9 0.0
03/03:30am NNE 3 4 - - - - - - - 16.1 1012.3 0.0
03/03:00am N 1 2 - - - - - - - 14.9 1012.3 0.0
03/02:30am CALM 0 0 - - - - - - - 15.0 1012.6 0.0
03/02:00am N 1 2 - - - - - - - 14.9 1013.1 0.0
03/01:30am CALM 0 0 - - - - - - - 15.6 1013.2 0.0
03/01:00am N 2 2 - - - - - - - 15.3 1013.6 0.0
03/12:30am N 1 2 - - - - - - - 15.9 1013.9 0.0
03/12:00am CALM 0 0 - - - - - - - 16.3 1014.2 0.0
 
Date/Time
EST
Wind Sea
Height
m
Swell Vis
km
Cloud Weather Temp
°C
Press
MSL
hPa
Rain since
9am
mm
Dir  Spd
kts
Gust
kts
Height
m
Period
s
Dir
02/11:30pm CALM 0 2 - - - - - - - 17.1 1014.4 0.0
02/11:00pm N 1 2 - - - - - - - 17.5 1014.6 0.0
02/10:30pm N 3 4 - - - - - - - 17.8 1014.5 0.0
02/10:00pm NNE 3 6 - - - - - - - 18.0 1014.5 0.0
02/09:30pm NNE 4 7 - - - - - - - 18.4 1014.6 0.0
02/09:00pm NNE 4 8 - - - - - - - 18.5 1014.7 0.0
02/08:30pm NNE 4 9 - - - - - - - 18.7 1014.7 0.0
02/08:00pm NNE 5 7 - - - - - - - 19.2 1014.8 0.0
02/07:30pm NNE 4 7 - - - - - - - 19.4 1015.0 0.0
02/07:00pm NNE 4 9 - - - - - - - 19.8 1015.1 0.0
02/06:30pm NNE 5 9 - - - - - - - 20.0 1014.9 0.0
02/06:00pm NNE 6 11 - - - - - - - 20.6 1014.6 0.0
02/05:30pm NE 6 12 - - - - - - - 21.0 1014.4 0.0
02/05:00pm NE 5 9 - - - - - - - 21.3 1014.5 0.0
02/04:30pm NE 4 9 - - - - - - - 22.7 1014.6 0.0
02/04:00pm NE 6 9 - - - - - - - 22.3 1014.7 0.0
02/03:30pm NE 6 12 - - - - - - - 22.4 1015.0 0.0
02/03:00pm NE 5 8 - - - - - - - 22.6 1015.1 0.0
02/02:30pm NE 5 10 - - - - - - - 22.5 1015.3 0.0
02/02:00pm NNE 6 10 - - - - - - - 22.7 1015.6 0.0
02/01:30pm NNE 6 14 - - - - - - - 23.3 1016.0 0.0
02/01:00pm NE 6 10 - - - - - - - 23.3 1016.5 0.0
02/12:30pm NE 6 11 - - - - - - - 21.9 1017.0 0.0
02/12:00pm NE 5 10 - - - - - - - 21.4 1017.7 0.0
02/11:30am NE 5 8 - - - - - - - 20.6 1018.2 0.0
02/11:00am NE 5 8 - - - - - - - 19.8 1018.6 0.0
02/10:30am NNE 3 5 - - - - - - - 18.8 1018.9 0.0
02/10:00am NNE 3 7 - - - - - - - 18.6 1019.1 0.0
02/09:30am N 3 5 - - - - - - - 16.4 1019.3 0.0
02/09:00am NNE 4 6 - - - - - - - 16.3 1019.4 0.0
02/08:30am NNE 3 5 - - - - - - - 15.8 1019.4 0.0
02/08:00am NNE 3 5 - - - - - - - 14.7 1019.4 0.0
02/07:30am NNE 3 5 - - - - - - - 12.6 1019.2 0.0
02/07:00am NE 1 3 - - - - - - - 10.9 1018.9 0.0
02/06:30am NNE 2 3 - - - - - - - 11.4 1018.9 0.0
02/06:00am CALM 0 1 - - - - - - - 11.9 1018.9 0.0
02/05:30am NNE 1 2 - - - - - - - 11.9 1019.0 0.0
02/05:00am NNE 1 2 - - - - - - - 11.5 1019.1 0.0
02/04:30am NNE 1 2 - - - - - - - 12.3 1019.1 0.0
02/04:00am NNE 2 3 - - - - - - - 12.8 1019.2 0.0
02/03:30am NNE 1 2 - - - - - - - 13.2 1019.2 0.0
02/03:00am NE 1 2 - - - - - - - 13.6 1019.4 0.0
02/02:30am NE 2 3 - - - - - - - 14.4 1019.7 0.0
02/02:00am NE 2 3 - - - - - - - 15.0 1019.9 0.0
02/01:30am NE 2 4 - - - - - - - 15.6 1020.2 0.0
02/01:00am NNE 3 5 - - - - - - - 15.9 1020.4 0.0
02/12:30am NNE 2 5 - - - - - - - 16.2 1020.6 0.0
02/12:00am NNE 3 6 - - - - - - - 16.6 1020.9 0.0
 
Date/Time
EST
Wind Sea
Height
m
Swell Vis
km
Cloud Weather Temp
°C
Press
MSL
hPa
Rain since
9am
mm
Dir  Spd
kts
Gust
kts
Height
m
Period
s
Dir
01/11:30pm NNE 2 4 - - - - - - - 16.5 1021.3 0.0
01/11:00pm NNE 2 4 - - - - - - - 16.4 1021.5 0.0
01/10:30pm NE 2 4 - - - - - - - 16.3 1021.9 0.0
01/10:00pm ENE 2 3 - - - - - - - 15.8 1022.0 0.0
01/09:30pm ENE 4 6 - - - - - - - 16.3 1022.0 0.0
01/09:00pm NE 1 2 - - - - - - - 15.9 1022.0 0.0
01/08:30pm NNE 2 3 - - - - - - - 17.4 1022.0 0.0
01/08:00pm NNE 2 3 - - - - - - - 18.5 1021.9 0.0

Other formats

Comma delimited format used in spreadsheet applications
http://www.bom.gov.au/fwo/IDV60701/IDV60701.94898.axf

JavaScript Object Notation format (JSON) in row-major order
http://www.bom.gov.au/fwo/IDV60701/IDV60701.94898.json

Data quality

Most of these data are generated automatically and are frequently updated. Quality checks on data are not normally performed. It is possible for incorrect values to appear. Refer to information at About Latest Weather Observations and please check the disclaimer before using these data.